Time;durP1;ratioP1;P1;durP2;ratioP2;P2;SDS_P1;SDS_P2;PMS_P1;PMS_P2;Temp;Humidity;BMP_temperature;BMP_pressure;BME280_temperature;BME280_humidity;BME280_pressure;Samples;Min_cycle;Max_cycle;Signal;HPM_P1;HPM_P2
2023/03/26 00:01:40;;;;;;;0.67;0.60;;;12.60;63.10;12.50;95942.00;;;;5096185;28;20231;-79
2023/03/26 00:04:08;;;;;;;0.70;0.50;;;12.60;63.00;12.50;95943.00;;;;5087603;28;20699;-80
2023/03/26 00:06:40;;;;;;;1.60;0.93;;;12.60;63.10;12.50;95933.00;;;;5096160;28;20298;-80
2023/03/26 00:09:11;;;;;;;0.87;0.70;;;12.60;63.10;12.50;95928.00;;;;5085977;28;20226;-79
2023/03/26 00:11:39;;;;;;;2.13;1.50;;;12.60;63.20;12.60;95936.00;;;;5084257;28;20203;-80
2023/03/26 00:14:12;;;;;;;2.10;1.60;;;12.60;63.20;12.60;95930.00;;;;5080336;28;20199;-80
2023/03/26 00:16:41;;;;;;;1.87;1.10;;;12.60;63.10;12.60;95928.00;;;;5079801;28;20278;-78
2023/03/26 00:19:09;;;;;;;9.00;5.47;;;12.60;63.10;12.60;95922.00;;;;5083001;28;20208;-79
2023/03/26 00:21:37;;;;;;;5.47;2.40;;;12.60;63.00;12.60;95922.00;;;;5089054;28;20196;-79
2023/03/26 00:24:08;;;;;;;2.83;2.20;;;12.60;63.00;12.60;95913.00;;;;5080519;28;20665;-79
2023/03/26 00:26:39;;;;;;;1.27;1.07;;;12.60;63.00;12.60;95924.00;;;;5093811;28;20203;-79
2023/03/26 00:29:09;;;;;;;2.40;0.93;;;12.60;62.90;12.60;95932.00;;;;5082682;28;20766;-81
2023/03/26 00:31:39;;;;;;;2.80;1.10;;;12.60;62.90;12.60;95935.00;;;;5092508;28;21925;-79
2023/03/26 00:34:09;;;;;;;0.83;0.60;;;12.60;62.80;12.50;95935.00;;;;5095964;28;20244;-80
2023/03/26 00:36:36;;;;;;;1.03;0.60;;;12.60;62.60;12.50;95932.00;;;;5080755;28;20294;-80
2023/03/26 00:39:05;;;;;;;0.50;0.50;;;12.60;62.60;12.50;95933.00;;;;5094576;28;20214;-80
2023/03/26 00:41:35;;;;;;;0.80;0.60;;;12.60;62.60;12.40;95913.00;;;;5087058;28;20223;-80
2023/03/26 00:44:05;;;;;;;1.13;0.50;;;12.60;62.50;12.40;95925.00;;;;5092897;28;20208;-80
2023/03/26 00:46:35;;;;;;;0.87;0.60;;;12.50;62.40;12.40;95926.00;;;;5094406;28;20309;-80
2023/03/26 00:49:02;;;;;;;1.73;0.93;;;12.50;62.30;12.40;95919.00;;;;5083197;28;20234;-80
2023/03/26 00:51:30;;;;;;;0.87;0.60;;;12.50;62.30;12.30;95919.00;;;;5082226;28;20682;-79
2023/03/26 00:53:58;;;;;;;1.83;0.80;;;12.50;62.30;12.30;95911.00;;;;5078450;28;20196;-79
2023/03/26 00:56:26;;;;;;;1.73;1.00;;;12.40;62.40;12.30;95916.00;;;;5081200;28;20726;-80
2023/03/26 00:58:56;;;;;;;0.50;0.47;;;12.40;62.50;12.30;95913.00;;;;5082838;28;20239;-80
2023/03/26 01:01:26;;;;;;;1.57;0.80;;;12.40;62.60;12.30;95916.00;;;;5087981;28;20202;-80
2023/03/26 01:03:58;;;;;;;0.50;0.50;;;12.40;62.50;12.30;95915.00;;;;5086562;28;20661;-79
2023/03/26 01:06:31;;;;;;;0.50;0.40;;;12.40;62.60;12.20;95909.00;;;;5083649;28;20692;-80
2023/03/26 01:09:06;;;;;;;0.90;0.43;;;12.40;62.50;12.20;95912.00;;;;5083407;28;20208;-78
2023/03/26 01:11:35;;;;;;;0.60;0.50;;;12.40;62.50;12.20;95913.00;;;;5079353;28;20198;-80
2023/03/26 01:14:09;;;;;;;1.07;0.40;;;12.30;62.50;12.20;95909.00;;;;5086211;28;20199;-80
2023/03/26 01:16:41;;;;;;;0.57;0.40;;;12.30;62.60;12.20;95905.00;;;;5091897;28;20191;-80
2023/03/26 01:19:21;;;;;;;0.57;0.47;;;12.30;62.70;12.20;95907.00;;;;5086309;28;20711;-80
2023/03/26 01:21:49;;;;;;;0.47;0.30;;;12.30;62.80;12.20;95906.00;;;;5082157;28;20195;-80
2023/03/26 01:24:18;;;;;;;0.77;0.43;;;12.30;62.80;12.30;95906.00;;;;5093533;28;20206;-80
2023/03/26 01:27:23;;;;;;;1.23;0.67;;;12.30;62.80;12.30;95896.00;;;;5088074;28;20217;-80
2023/03/26 01:29:55;;;;;;;1.13;0.50;;;12.30;62.90;12.30;95898.00;;;;5078950;28;20657;-79
2023/03/26 01:32:47;;;;;;;1.43;0.77;;;12.30;62.70;12.20;95899.00;;;;5075674;28;20203;-80
2023/03/26 01:35:33;;;;;;;0.77;0.57;;;12.30;62.80;12.20;95906.00;;;;5085384;28;20202;-79
2023/03/26 01:38:13;;;;;;;0.80;0.70;;;12.30;62.80;12.20;95906.00;;;;5092535;28;20192;-81
2023/03/26 01:40:50;;;;;;;0.70;0.63;;;12.30;62.80;12.20;95905.00;;;;5094499;28;20294;-80
2023/03/26 01:43:31;;;;;;;0.90;0.40;;;12.30;62.90;12.20;95905.00;;;;5096836;28;20199;-80
2023/03/26 01:46:04;;;;;;;1.10;0.57;;;12.30;62.90;12.30;95903.00;;;;5076285;28;20711;-80
2023/03/26 01:48:35;;;;;;;2.57;0.80;;;12.30;62.90;12.30;95901.00;;;;5092933;28;20632;-80
2023/03/26 01:51:03;;;;;;;2.20;0.97;;;12.30;63.50;12.30;95897.00;;;;5084183;28;20206;-79
2023/03/26 01:53:32;;;;;;;0.80;0.40;;;12.30;62.80;12.30;95897.00;;;;5094946;28;20207;-80
2023/03/26 01:56:14;;;;;;;1.00;0.90;;;12.30;62.80;12.30;95892.00;;;;5078024;28;20200;-79
2023/03/26 01:58:58;;;;;;;0.77;0.50;;;12.30;62.80;12.20;95882.00;;;;5075828;28;20568;-80
2023/03/26 02:01:31;;;;;;;0.90;0.60;;;12.30;62.80;12.20;95894.00;;;;5079020;28;20283;-80
2023/03/26 02:04:09;;;;;;;1.23;0.50;;;12.30;62.70;12.20;95879.00;;;;5087552;28;20660;-79
2023/03/26 02:06:45;;;;;;;0.57;0.50;;;12.30;62.60;12.20;95879.00;;;;5085222;28;20222;-80
2023/03/26 02:09:21;;;;;;;2.20;0.60;;;12.30;62.60;12.10;95878.00;;;;5083259;28;20241;-80
2023/03/26 02:11:51;;;;;;;0.50;0.50;;;12.30;62.50;12.10;95871.00;;;;5084839;28;20240;-80
2023/03/26 02:14:19;;;;;;;0.50;0.40;;;12.30;62.60;12.10;95869.00;;;;5089467;28;20251;-79
2023/03/26 02:16:46;;;;;;;1.00;0.50;;;12.20;62.50;12.00;95876.00;;;;5089786;28;20235;-79
2023/03/26 02:19:20;;;;;;;0.63;0.40;;;12.20;62.50;12.00;95883.00;;;;5090875;28;20223;-80
2023/03/26 02:21:50;;;;;;;2.77;0.60;;;12.10;62.30;11.90;95858.00;;;;5091575;28;20536;-78
2023/03/26 02:24:19;;;;;;;0.60;0.47;;;12.10;62.40;11.90;95862.00;;;;5090823;28;20191;-79
2023/03/26 02:26:47;;;;;;;1.07;0.40;;;12.10;62.50;11.90;95862.00;;;;5085955;28;20768;-80
2023/03/26 02:29:19;;;;;;;0.83;0.70;;;12.10;62.60;11.90;95856.00;;;;5087509;28;20220;-80
2023/03/26 02:31:47;;;;;;;0.83;0.47;;;12.00;62.60;11.90;95853.00;;;;5096825;28;20248;-80
2023/03/26 02:34:14;;;;;;;0.87;0.50;;;12.00;62.60;11.80;95855.00;;;;5099392;28;20201;-80
2023/03/26 02:36:42;;;;;;;1.33;0.50;;;12.00;62.60;11.80;95849.00;;;;5087119;28;20200;-80
2023/03/26 02:39:13;;;;;;;1.40;0.50;;;12.00;62.70;11.80;95855.00;;;;5091755;28;20762;-80
2023/03/26 02:41:40;;;;;;;1.83;0.60;;;11.90;62.70;11.80;95849.00;;;;5094169;28;20256;-80
2023/03/26 02:44:07;;;;;;;1.30;0.30;;;11.90;62.90;11.80;95847.00;;;;5089154;28;20200;-80
2023/03/26 02:46:36;;;;;;;0.53;0.30;;;11.90;62.90;11.70;95847.00;;;;5091161;28;20287;-81
2023/03/26 02:49:03;;;;;;;1.00;0.60;;;11.90;62.90;11.70;95841.00;;;;5098876;28;20310;-80
2023/03/26 02:51:33;;;;;;;1.30;0.47;;;11.90;62.90;11.70;95846.00;;;;5089773;28;20286;-79
2023/03/26 02:54:01;;;;;;;0.70;0.43;;;11.80;62.90;11.70;95836.00;;;;5099444;28;20238;-80
2023/03/26 02:56:29;;;;;;;0.77;0.37;;;11.80;63.00;11.70;95839.00;;;;5099441;28;20192;-79
2023/03/26 02:58:56;;;;;;;2.03;0.60;;;11.80;63.00;11.70;95834.00;;;;5085703;28;20841;-79
2023/03/26 03:01:24;;;;;;;2.80;0.60;;;11.80;63.10;11.70;95835.00;;;;5091915;28;20191;-80
2023/03/26 03:03:53;;;;;;;0.53;0.40;;;11.80;63.40;11.70;95836.00;;;;5082989;28;20278;-80
2023/03/26 03:06:20;;;;;;;0.57;0.50;;;11.80;63.30;11.70;95836.00;;;;5096769;28;20197;-80
2023/03/26 03:08:48;;;;;;;1.07;0.60;;;11.80;63.30;11.70;95829.00;;;;5091945;28;20215;-79
2023/03/26 03:11:23;;;;;;;1.43;0.63;;;11.80;63.40;11.70;95839.00;;;;5067232;28;20259;-79
2023/03/26 03:13:51;;;;;;;1.90;0.80;;;11.80;63.40;11.70;95832.00;;;;5083106;28;20558;-80
2023/03/26 03:16:18;;;;;;;0.60;0.47;;;11.80;63.40;11.70;95829.00;;;;5107838;28;20228;-80
2023/03/26 03:18:52;;;;;;;0.70;0.60;;;11.80;63.30;11.70;95822.00;;;;5103996;28;20204;-80
2023/03/26 03:21:21;;;;;;;1.67;0.40;;;11.80;63.40;11.70;95823.00;;;;5109196;28;20210;-80
2023/03/26 03:23:49;;;;;;;1.27;0.83;;;11.70;63.40;11.70;95813.00;;;;5099431;28;20211;-80
2023/03/26 03:26:21;;;;;;;1.27;0.60;;;11.80;63.50;11.70;95819.00;;;;5104928;28;20195;-80
2023/03/26 03:28:49;;;;;;;0.87;0.53;;;11.80;63.60;11.80;95807.00;;;;5098036;28;20215;-80
2023/03/26 03:31:17;;;;;;;1.50;0.80;;;11.80;63.60;11.80;95806.00;;;;5081770;28;20200;-79
2023/03/26 03:33:45;;;;;;;1.43;0.60;;;11.80;63.60;11.70;95794.00;;;;5084846;28;20218;-79
2023/03/26 03:36:13;;;;;;;1.73;0.50;;;11.80;63.50;11.70;95792.00;;;;5092327;28;20631;-80
2023/03/26 03:38:42;;;;;;;0.97;0.47;;;11.80;63.50;11.70;95785.00;;;;5082667;28;20195;-80
2023/03/26 03:41:11;;;;;;;2.53;0.70;;;11.80;63.60;11.70;95791.00;;;;5081565;28;20215;-79
2023/03/26 03:43:38;;;;;;;1.70;0.73;;;11.70;63.50;11.70;95784.00;;;;5090518;28;20713;-80
2023/03/26 03:46:07;;;;;;;2.97;0.87;;;11.70;63.40;11.70;95777.00;;;;5080708;28;20614;-79
2023/03/26 03:48:37;;;;;;;1.50;0.63;;;11.70;63.50;11.70;95775.00;;;;5093614;28;20215;-80
2023/03/26 03:51:06;;;;;;;0.87;0.70;;;11.70;63.50;11.70;95771.00;;;;5095236;28;20233;-80
2023/03/26 03:53:35;;;;;;;0.83;0.60;;;11.70;63.50;11.60;95772.00;;;;5111032;28;20195;-81
2023/03/26 03:56:09;;;;;;;0.97;0.50;;;11.70;63.50;11.60;95768.00;;;;5094719;28;20187;-79
2023/03/26 03:58:37;;;;;;;0.97;0.77;;;11.70;63.40;11.60;95773.00;;;;5085829;28;20222;-77
2023/03/26 04:01:04;;;;;;;0.73;0.50;;;11.60;63.40;11.60;95769.00;;;;5066846;28;20225;-78
2023/03/26 04:03:37;;;;;;;1.70;0.70;;;11.60;63.30;11.50;95775.00;;;;5080465;28;20284;-78
2023/03/26 04:06:06;;;;;;;1.80;0.70;;;11.60;63.50;11.50;95780.00;;;;5082344;28;20199;-79
2023/03/26 04:08:35;;;;;;;0.93;0.40;;;11.60;63.50;11.50;95775.00;;;;5083445;28;20216;-78
2023/03/26 04:11:04;;;;;;;1.10;0.53;;;11.60;63.40;11.50;95775.00;;;;5073659;28;20537;-79
2023/03/26 04:13:31;;;;;;;0.80;0.50;;;11.60;63.50;11.50;95773.00;;;;5057537;28;20196;-78
2023/03/26 04:15:59;;;;;;;1.43;0.70;;;11.60;63.50;11.40;95770.00;;;;5094287;28;20282;-78
2023/03/26 04:18:28;;;;;;;1.53;0.73;;;11.50;63.40;11.40;95778.00;;;;5088852;28;20252;-79
2023/03/26 04:20:55;;;;;;;1.37;0.60;;;11.50;63.40;11.40;95774.00;;;;5089757;28;20203;-79
2023/03/26 04:23:23;;;;;;;0.83;0.60;;;11.50;63.60;11.40;95769.00;;;;5086059;28;20209;-79
2023/03/26 04:25:54;;;;;;;1.47;0.57;;;11.50;63.70;11.40;95765.00;;;;5074536;28;20202;-79
2023/03/26 04:28:30;;;;;;;1.70;0.60;;;11.50;63.70;11.40;95758.00;;;;5067505;28;20212;-80
2023/03/26 04:31:02;;;;;;;0.70;0.53;;;11.50;63.80;11.40;95763.00;;;;5085073;28;20195;-80
2023/03/26 04:33:33;;;;;;;1.53;0.60;;;11.40;63.50;11.30;95765.00;;;;5092467;28;20190;-81
2023/03/26 04:36:02;;;;;;;2.80;0.70;;;11.40;63.60;11.30;95753.00;;;;5082956;28;20287;-80
2023/03/26 04:38:32;;;;;;;1.60;0.70;;;11.40;63.80;11.30;95739.00;;;;5083263;28;20204;-80
2023/03/26 04:41:02;;;;;;;1.47;0.70;;;11.40;63.80;11.30;95738.00;;;;5077291;28;20547;-80
2023/03/26 04:43:34;;;;;;;1.53;0.60;;;11.30;63.80;11.30;95739.00;;;;5074942;28;20203;-80
2023/03/26 04:46:03;;;;;;;2.00;0.97;;;11.30;63.80;11.30;95745.00;;;;5081912;28;20204;-80
2023/03/26 04:48:31;;;;;;;0.97;0.40;;;11.30;63.90;11.30;95750.00;;;;5082768;28;20718;-81
2023/03/26 04:51:00;;;;;;;2.10;0.80;;;11.30;64.10;11.20;95752.00;;;;5094748;28;20249;-81
2023/03/26 04:53:28;;;;;;;1.03;0.40;;;11.30;64.10;11.20;95749.00;;;;5090841;28;20598;-81
2023/03/26 04:56:04;;;;;;;0.93;0.50;;;11.30;64.10;11.20;95744.00;;;;5092647;28;20219;-80
2023/03/26 04:58:32;;;;;;;1.03;0.60;;;11.30;64.30;11.30;95740.00;;;;5089421;28;20286;-80
2023/03/26 05:01:02;;;;;;;1.60;0.60;;;11.20;65.10;11.30;95749.00;;;;5077768;28;20199;-80
2023/03/26 05:03:31;;;;;;;1.00;0.70;;;11.20;64.50;11.30;95747.00;;;;5076075;28;20199;-80
2023/03/26 05:06:00;;;;;;;1.63;0.90;;;11.30;64.70;11.30;95737.00;;;;5089021;28;20244;-78
2023/03/26 05:08:29;;;;;;;1.20;0.40;;;11.30;64.80;11.30;95736.00;;;;5075505;28;20220;-78
2023/03/26 05:10:56;;;;;;;2.67;0.70;;;11.30;64.70;11.30;95723.00;;;;5077138;28;20588;-77
2023/03/26 05:13:24;;;;;;;1.03;0.50;;;11.30;64.70;11.30;95704.00;;;;5086767;28;20567;-77
2023/03/26 05:15:54;;;;;;;3.33;1.03;;;11.30;64.80;11.30;95707.00;;;;5087730;28;20195;-78
2023/03/26 05:18:21;;;;;;;1.47;0.63;;;11.30;64.90;11.30;95707.00;;;;5079294;28;20196;-78
2023/03/26 05:20:49;;;;;;;1.03;0.63;;;11.30;64.90;11.30;95704.00;;;;5081616;28;20760;-77
2023/03/26 05:23:16;;;;;;;1.23;0.80;;;11.30;65.00;11.30;95703.00;;;;5082198;28;20195;-77
2023/03/26 05:25:43;;;;;;;2.50;0.90;;;11.30;65.00;11.30;95696.00;;;;5072215;28;20204;-78
2023/03/26 05:28:11;;;;;;;0.73;0.50;;;11.30;65.00;11.30;95709.00;;;;5089248;28;20306;-78
2023/03/26 05:30:39;;;;;;;1.10;0.50;;;11.30;65.00;11.40;95706.00;;;;5086617;28;20742;-78
2023/03/26 05:33:08;;;;;;;1.93;0.80;;;11.30;65.10;11.40;95703.00;;;;5079099;28;20224;-78
2023/03/26 05:35:35;;;;;;;1.70;0.77;;;11.40;65.20;11.40;95695.00;;;;5089659;28;20274;-78
2023/03/26 05:38:03;;;;;;;3.03;0.57;;;11.40;65.20;11.40;95690.00;;;;5088065;28;20218;-78
2023/03/26 05:40:30;;;;;;;1.93;0.70;;;11.30;65.10;11.40;95685.00;;;;5085844;28;20207;-78
2023/03/26 05:42:58;;;;;;;1.50;0.47;;;11.30;65.00;11.40;95688.00;;;;5090951;28;20195;-77
2023/03/26 05:45:25;;;;;;;0.97;0.50;;;11.30;65.00;11.40;95683.00;;;;5090646;28;20425;-77
2023/03/26 05:47:53;;;;;;;1.20;0.77;;;11.30;64.90;11.40;95675.00;;;;5092163;28;20246;-77
2023/03/26 05:50:23;;;;;;;1.47;0.60;;;11.40;65.00;11.30;95671.00;;;;5074603;28;20224;-78
2023/03/26 05:52:50;;;;;;;1.33;0.60;;;11.30;64.80;11.30;95662.00;;;;5084127;28;20196;-78
2023/03/26 05:55:18;;;;;;;1.37;0.70;;;11.30;64.70;11.30;95660.00;;;;5092403;28;20648;-78
2023/03/26 05:57:46;;;;;;;0.67;0.40;;;11.30;64.80;11.30;95652.00;;;;5087359;28;20215;-78
2023/03/26 06:00:14;;;;;;;2.30;0.77;;;11.40;65.00;11.30;95648.00;;;;5086114;28;20246;-78
2023/03/26 06:02:43;;;;;;;1.50;0.60;;;11.30;65.20;11.30;95645.00;;;;5082808;28;20232;-78
2023/03/26 06:05:11;;;;;;;0.60;0.60;;;11.40;65.30;11.40;95646.00;;;;5078061;28;20234;-78
2023/03/26 06:07:40;;;;;;;0.63;0.57;;;11.40;65.40;11.40;95643.00;;;;5092188;28;21693;-78
2023/03/26 06:10:09;;;;;;;1.90;1.00;;;11.40;65.60;11.50;95649.00;;;;5091273;28;20294;-77
2023/03/26 06:12:38;;;;;;;1.77;0.77;;;11.40;65.70;11.50;95649.00;;;;5084667;28;20205;-80
2023/03/26 06:15:07;;;;;;;1.93;0.70;;;11.50;65.80;11.60;95650.00;;;;5071389;28;20287;-79
2023/03/26 06:17:35;;;;;;;3.80;0.77;;;11.50;66.00;11.70;95642.00;;;;5055000;28;20200;-80
2023/03/26 06:20:05;;;;;;;3.20;0.77;;;11.60;66.00;11.80;95633.00;;;;5074254;28;20228;-79
2023/03/26 06:22:33;;;;;;;1.63;0.60;;;11.60;65.90;11.80;95629.00;;;;5071050;28;20196;-79
2023/03/26 06:25:02;;;;;;;1.10;0.60;;;11.60;65.90;11.90;95621.00;;;;5079030;28;20738;-79
2023/03/26 06:27:30;;;;;;;1.00;0.80;;;11.70;65.70;12.00;95623.00;;;;5085835;28;20230;-79
2023/03/26 06:30:00;;;;;;;1.30;0.50;;;11.70;65.70;12.00;95624.00;;;;5097389;28;20314;-79
2023/03/26 06:32:27;;;;;;;2.20;0.70;;;11.80;65.90;12.10;95621.00;;;;5097422;28;20203;-82
2023/03/26 06:34:55;;;;;;;1.47;0.60;;;11.80;65.90;12.10;95617.00;;;;5081743;28;20256;-82
2023/03/26 06:37:22;;;;;;;0.93;0.60;;;11.90;65.90;12.20;95612.00;;;;5081969;28;20215;-80
2023/03/26 06:39:50;;;;;;;1.10;0.60;;;11.90;65.70;12.20;95610.00;;;;5079037;28;20223;-79
2023/03/26 06:42:20;;;;;;;2.53;0.60;;;12.00;65.70;12.30;95609.00;;;;5092907;28;20191;-80
2023/03/26 06:44:48;;;;;;;1.93;0.60;;;12.00;65.60;12.30;95613.00;;;;5087148;28;20187;-79
2023/03/26 06:47:15;;;;;;;2.73;0.77;;;12.10;65.60;12.40;95609.00;;;;5095957;28;20215;-80
2023/03/26 06:49:43;;;;;;;2.07;0.57;;;12.10;65.50;12.40;95612.00;;;;5089633;28;20243;-80
2023/03/26 06:52:11;;;;;;;2.13;0.80;;;12.20;65.50;12.50;95604.00;;;;5098259;28;20203;-80
2023/03/26 06:54:39;;;;;;;2.10;0.60;;;12.20;65.40;12.50;95605.00;;;;5086511;28;20207;-82
2023/03/26 06:57:06;;;;;;;2.10;0.70;;;12.30;65.30;12.60;95601.00;;;;5085979;28;20200;-79
2023/03/26 06:59:36;;;;;;;1.03;0.60;;;12.30;65.30;12.60;95593.00;;;;5061200;28;20216;-80
2023/03/26 07:02:04;;;;;;;1.83;0.90;;;12.40;65.40;12.70;95590.00;;;;5089728;28;20194;-79
2023/03/26 07:04:31;;;;;;;2.27;1.10;;;12.40;65.40;12.70;95592.00;;;;5075923;28;20694;-78
2023/03/26 07:06:59;;;;;;;1.93;1.40;;;12.50;65.30;12.80;95593.00;;;;5081654;28;20283;-78
2023/03/26 07:09:29;;;;;;;1.87;0.70;;;12.50;65.30;12.80;95592.00;;;;5080466;28;20665;-80
2023/03/26 07:11:56;;;;;;;1.60;1.00;;;12.60;65.20;12.90;95588.00;;;;5094799;28;20237;-80
2023/03/26 07:14:26;;;;;;;1.30;0.80;;;12.60;65.00;12.90;95578.00;;;;5076252;28;20200;-79
2023/03/26 07:16:55;;;;;;;2.07;0.70;;;12.60;64.70;13.00;95580.00;;;;5075717;28;20271;-77
2023/03/26 07:19:23;;;;;;;1.33;0.60;;;12.70;64.60;13.00;95570.00;;;;5090631;28;20762;-78
2023/03/26 07:21:51;;;;;;;1.23;0.80;;;12.70;64.40;13.00;95573.00;;;;5083653;28;20234;-79
2023/03/26 07:24:19;;;;;;;2.30;0.70;;;12.70;64.30;13.10;95568.00;;;;5083415;28;20282;-80
2023/03/26 07:26:59;;;;;;;3.47;1.30;;;12.80;64.30;13.10;95560.00;;;;5086508;28;20253;-80
2023/03/26 07:29:37;;;;;;;3.47;0.90;;;12.80;64.20;13.20;95555.00;;;;5087177;28;20215;-79
2023/03/26 07:32:19;;;;;;;1.30;0.90;;;12.90;64.20;13.20;95560.00;;;;5092713;28;20574;-82
2023/03/26 07:34:54;;;;;;;2.23;1.27;;;12.90;64.10;13.20;95550.00;;;;5079908;28;20207;-80
2023/03/26 07:37:42;;;;;;;0.70;0.60;;;12.90;64.00;13.30;95547.00;;;;5078031;28;20202;-80
2023/03/26 07:40:28;;;;;;;2.10;0.80;;;13.00;63.80;13.30;95540.00;;;;5081471;28;20211;-81
2023/03/26 07:43:05;;;;;;;1.80;0.70;;;13.10;63.90;13.40;95537.00;;;;5089918;28;20196;-81
2023/03/26 07:45:40;;;;;;;2.70;0.93;;;13.10;63.70;13.40;95531.00;;;;5076731;28;20223;-81
2023/03/26 07:48:17;;;;;;;1.73;0.80;;;13.20;63.80;13.50;95529.00;;;;5088172;28;20285;-81
2023/03/26 07:50:45;;;;;;;5.33;1.37;;;13.20;63.70;13.50;95535.00;;;;5086889;28;20226;-81
2023/03/26 07:53:14;;;;;;;3.33;1.30;;;13.30;63.70;13.60;95525.00;;;;5095977;28;20558;-80
2023/03/26 07:55:53;;;;;;;1.23;0.80;;;13.30;63.80;13.60;95523.00;;;;5092425;28;20278;-80
2023/03/26 07:58:45;;;;;;;2.23;0.80;;;13.40;64.10;13.70;95523.00;;;;5094310;28;20698;-81
2023/03/26 08:01:24;;;;;;;1.37;0.97;;;13.40;63.90;13.80;95514.00;;;;5083150;28;20703;-81
2023/03/26 08:04:20;;;;;;;2.27;0.90;;;13.50;63.80;13.90;95514.00;;;;5090230;28;20200;-81
2023/03/26 08:06:56;;;;;;;2.60;0.83;;;13.60;64.20;14.00;95501.00;;;;5085307;28;20204;-80
2023/03/26 08:09:35;;;;;;;1.70;0.80;;;13.70;64.00;14.00;95496.00;;;;5077379;28;20656;-80
2023/03/26 08:12:19;;;;;;;3.00;1.00;;;13.70;63.80;14.10;95482.00;;;;5088611;28;20206;-79
2023/03/26 08:14:59;;;;;;;1.30;0.60;;;13.80;63.80;14.10;95477.00;;;;5085858;28;20187;-81
2023/03/26 08:17:38;;;;;;;1.27;0.63;;;13.80;63.70;14.10;95473.00;;;;5089671;28;20199;-81
2023/03/26 08:20:27;;;;;;;1.93;1.10;;;13.80;63.50;14.10;95459.00;;;;5088098;28;20253;-81
2023/03/26 08:23:05;;;;;;;2.80;1.13;;;13.90;63.40;14.10;95463.00;;;;5087439;28;20195;-81
2023/03/26 08:25:52;;;;;;;2.97;1.20;;;13.90;63.50;14.10;95451.00;;;;5076210;28;20638;-82
2023/03/26 08:28:47;;;;;;;2.93;0.73;;;13.90;64.10;14.10;95458.00;;;;5087164;28;20192;-83
2023/03/26 08:31:18;;;;;;;1.87;0.80;;;13.90;64.00;14.10;95446.00;;;;5077094;28;20803;-81
2023/03/26 08:33:46;;;;;;;2.40;1.00;;;13.90;64.20;14.10;95452.00;;;;5083358;28;20226;-82
2023/03/26 08:36:15;;;;;;;2.30;0.80;;;13.90;64.40;14.20;95437.00;;;;5093392;28;20218;-84
2023/03/26 08:38:42;;;;;;;2.30;0.70;;;13.90;64.10;14.20;95427.00;;;;5100438;28;20199;-83
2023/03/26 08:42:10;;;;;;;1.83;0.87;;;13.90;63.80;14.20;95430.00;;;;5097194;28;20200;-82
2023/03/26 08:45:21;;;;;;;2.43;0.90;;;14.00;63.90;14.20;95430.00;;;;5092191;28;20190;-81
2023/03/26 08:48:49;;;;;;;2.07;1.00;;;14.00;62.80;14.20;95434.00;;;;5101545;28;20218;-80
2023/03/26 08:52:34;;;;;;;3.20;0.93;;;14.00;62.40;14.20;95428.00;;;;5091115;28;20667;-81
2023/03/26 08:55:43;;;;;;;1.70;0.87;;;14.00;63.10;14.20;95425.00;;;;5078077;28;20192;-81
2023/03/26 08:58:53;;;;;;;1.30;0.60;;;14.00;62.70;14.10;95415.00;;;;5085992;28;20632;-81
2023/03/26 09:02:04;;;;;;;2.80;1.00;;;14.00;62.20;14.10;95421.00;;;;5095746;28;20202;-81
2023/03/26 09:05:05;;;;;;;2.77;0.80;;;14.00;61.50;14.10;95421.00;;;;5079871;28;20202;-81
2023/03/26 09:08:29;;;;;;;2.43;1.20;;;14.00;61.60;14.10;95400.00;;;;5091439;28;20228;-81
2023/03/26 09:11:48;;;;;;;2.50;0.80;;;14.00;61.40;14.10;95404.00;;;;5068087;28;20200;-81
2023/03/26 09:15:26;;;;;;;2.10;0.97;;;14.00;61.60;14.10;95393.00;;;;5089790;28;20224;-81
2023/03/26 09:18:52;;;;;;;1.57;0.60;;;13.90;61.70;14.10;95402.00;;;;5022500;28;20687;-81
2023/03/26 09:22:20;;;;;;;2.13;0.87;;;13.90;61.80;14.10;95408.00;;;;5077259;28;20198;-81
2023/03/26 09:25:23;;;;;;;2.17;0.70;;;13.90;62.20;14.10;95408.00;;;;5039701;28;20223;-84
2023/03/26 09:28:49;;;;;;;1.43;0.67;;;13.90;62.40;14.10;95407.00;;;;5088614;28;20206;-82
2023/03/26 09:32:01;;;;;;;1.40;0.70;;;13.90;62.90;14.00;95417.00;;;;5099359;28;20199;-83
2023/03/26 09:34:31;;;;;;;3.27;1.00;;;13.90;63.00;14.00;95427.00;;;;5103056;28;20206;-82
2023/03/26 09:37:18;;;;;;;2.37;0.80;;;13.80;63.10;13.90;95407.00;;;;5102267;28;20175;-83
2023/03/26 09:40:03;;;;;;;2.50;0.90;;;13.80;64.00;13.90;95410.00;;;;5096870;28;20242;-84
2023/03/26 09:42:44;;;;;;;2.40;0.90;;;13.80;64.40;13.90;95406.00;;;;5086084;28;20191;-81
2023/03/26 09:45:52;;;;;;;2.33;1.00;;;13.70;65.00;13.90;95399.00;;;;5079764;28;20719;-81
2023/03/26 09:49:08;;;;;;;1.97;0.93;;;13.70;65.90;13.80;95395.00;;;;5067110;28;20206;-83
2023/03/26 09:52:03;;;;;;;2.43;1.10;;;13.70;66.20;13.80;95389.00;;;;5087457;28;20227;-82
2023/03/26 09:55:14;;;;;;;1.77;0.70;;;13.70;66.30;13.70;95387.00;;;;5093428;28;20179;-81
2023/03/26 09:58:18;;;;;;;1.77;0.70;;;13.60;67.00;13.70;95381.00;;;;5095812;28;20282;-82
2023/03/26 10:01:04;;;;;;;1.60;0.80;;;13.60;67.20;13.70;95381.00;;;;5078904;28;20721;-82
2023/03/26 10:03:49;;;;;;;0.87;0.77;;;13.60;66.90;13.70;95379.00;;;;5082605;28;20201;-82
2023/03/26 10:06:58;;;;;;;3.63;0.80;;;13.50;67.40;13.70;95382.00;;;;5078514;28;20203;-81
2023/03/26 10:09:53;;;;;;;3.10;0.70;;;13.50;68.90;13.70;95372.00;;;;5090327;28;20219;-82
2023/03/26 10:12:35;;;;;;;2.27;1.00;;;13.50;68.50;13.70;95361.00;;;;5095666;28;20215;-82
2023/03/26 10:15:22;;;;;;;2.93;1.27;;;13.50;67.90;13.70;95374.00;;;;5097038;28;20191;-82
2023/03/26 10:21:01;;;;;;;1.87;0.90;;;13.50;68.40;13.70;95355.00;;;;5144330;27;20577;-82
2023/03/26 10:24:15;;;;;;;5.33;1.20;;;13.50;68.60;13.70;95365.00;;;;5122527;28;20190;-82
2023/03/26 10:27:08;;;;;;;2.07;0.87;;;13.50;68.60;13.60;95357.00;;;;5106604;27;20221;-83
2023/03/26 10:30:23;;;;;;;3.47;1.60;;;13.50;68.70;13.60;95357.00;;;;5118530;28;20225;-80
2023/03/26 10:33:02;;;;;;;1.77;1.13;;;13.40;68.40;13.50;95336.00;;;;5102185;28;20629;-81
2023/03/26 10:35:47;;;;;;;1.80;1.00;;;13.40;67.70;13.50;95344.00;;;;5112397;28;20697;-82
2023/03/26 10:38:35;;;;;;;2.33;0.80;;;13.40;67.50;13.50;95348.00;;;;5112818;28;20195;-82
2023/03/26 10:41:13;;;;;;;3.50;0.97;;;13.30;67.80;13.40;95345.00;;;;5103603;28;20234;-83
2023/03/26 10:44:32;;;;;;;0.50;0.50;;;13.30;67.80;13.50;95352.00;;;;5113699;28;20278;-82
2023/03/26 10:47:40;;;;;;;0.83;0.80;;;13.30;68.20;13.50;95347.00;;;;5111946;28;20219;-80
2023/03/26 10:50:51;;;;;;;2.03;0.83;;;13.30;68.60;13.50;95341.00;;;;5072475;28;20637;-81
2023/03/26 10:53:36;;;;;;;2.00;1.00;;;13.30;68.60;13.60;95339.00;;;;5102717;28;20186;-81
2023/03/26 10:56:15;;;;;;;1.20;0.70;;;13.40;69.00;13.70;95342.00;;;;5112332;28;20221;-81
2023/03/26 10:58:43;;;;;;;1.47;0.80;;;13.40;68.80;13.80;95336.00;;;;5103474;28;20275;-82
2023/03/26 11:01:22;;;;;;;1.97;0.70;;;13.40;68.40;13.80;95341.00;;;;5108364;28;20270;-81
2023/03/26 11:03:53;;;;;;;2.67;1.13;;;13.50;69.00;13.80;95347.00;;;;5104455;28;20222;-81
2023/03/26 11:06:34;;;;;;;1.90;0.67;;;13.50;68.10;13.80;95341.00;;;;5107796;28;20221;-82
2023/03/26 11:09:28;;;;;;;2.67;0.90;;;13.50;68.30;13.80;95345.00;;;;5111025;28;20895;-82
2023/03/26 11:12:05;;;;;;;1.20;0.80;;;13.60;68.60;13.80;95336.00;;;;5098370;28;20236;-81
2023/03/26 11:14:43;;;;;;;1.97;0.70;;;13.60;68.00;13.80;95330.00;;;;5111523;28;20222;-80
2023/03/26 11:17:28;;;;;;;1.67;0.60;;;13.60;68.10;13.80;95339.00;;;;5112752;28;20205;-82
2023/03/26 11:20:05;;;;;;;1.47;0.67;;;13.60;68.30;13.80;95332.00;;;;5115482;28;20215;-81
2023/03/26 11:22:47;;;;;;;1.50;1.00;;;13.60;68.40;13.80;95332.00;;;;5124956;28;20199;-80
2023/03/26 11:25:45;;;;;;;2.63;0.90;;;13.60;69.20;13.80;95314.00;;;;5113375;28;20205;-81
2023/03/26 11:28:36;;;;;;;1.03;0.90;;;13.60;68.10;13.80;95317.00;;;;5106638;28;20199;-79
2023/03/26 11:31:18;;;;;;;1.40;0.90;;;13.70;67.90;13.80;95330.00;;;;5107471;28;20195;-80
2023/03/26 11:33:50;;;;;;;1.03;0.80;;;13.70;68.90;13.80;95335.00;;;;5092299;28;20960;-79
2023/03/26 11:36:23;;;;;;;1.93;0.90;;;13.60;68.20;13.80;95334.00;;;;5089969;28;20574;-80
2023/03/26 11:38:53;;;;;;;3.60;1.00;;;13.70;68.40;13.90;95337.00;;;;5088688;28;20727;-80
2023/03/26 11:41:26;;;;;;;1.57;1.23;;;13.70;68.60;13.90;95329.00;;;;5090366;28;20743;-79